sensor_id;sensor_type;location;lat;lon;timestamp;pressure;altitude;pressure_sealevel;temperature;humidity
74163;BME280;62515;52.758;5.076;2024-03-23T00:55:34;101104.53;;;8.51;100.00
74163;BME280;62515;52.758;5.076;2024-03-23T00:57:59;101102.03;;;8.64;100.00
74163;BME280;62515;52.758;5.076;2024-03-23T01:00:25;101096.22;;;8.57;100.00
74163;BME280;62515;52.758;5.076;2024-03-23T01:02:51;101095.00;;;8.63;100.00
74163;BME280;62515;52.758;5.076;2024-03-23T01:05:18;101095.38;;;8.57;100.00
74163;BME280;62515;52.758;5.076;2024-03-23T01:07:44;101088.81;;;8.48;100.00
74163;BME280;62515;52.758;5.076;2024-03-23T01:10:10;101087.03;;;8.33;100.00
74163;BME280;62515;52.758;5.076;2024-03-23T01:12:36;101086.69;;;8.23;100.00
74163;BME280;62515;52.758;5.076;2024-03-23T01:15:02;101080.00;;;8.02;100.00
74163;BME280;62515;52.758;5.076;2024-03-23T01:17:28;101079.84;;;7.89;100.00
74163;BME280;62515;52.758;5.076;2024-03-23T01:19:54;101074.88;;;7.83;100.00
74163;BME280;62515;52.758;5.076;2024-03-23T01:22:21;101082.78;;;8.15;100.00
74163;BME280;62515;52.758;5.076;2024-03-23T01:24:47;101077.50;;;7.99;100.00
74163;BME280;62515;52.758;5.076;2024-03-23T01:27:12;101076.75;;;7.81;100.00
74163;BME280;62515;52.758;5.076;2024-03-23T01:29:38;101066.75;;;7.86;100.00
74163;BME280;62515;52.758;5.076;2024-03-23T01:32:05;101063.59;;;7.96;100.00
74163;BME280;62515;52.758;5.076;2024-03-23T01:34:30;101062.78;;;7.94;100.00
74163;BME280;62515;52.758;5.076;2024-03-23T01:36:56;101050.44;;;8.24;100.00
74163;BME280;62515;52.758;5.076;2024-03-23T01:39:24;101047.13;;;8.50;100.00
74163;BME280;62515;52.758;5.076;2024-03-23T01:41:49;101040.69;;;8.24;100.00
74163;BME280;62515;52.758;5.076;2024-03-23T01:44:15;101040.47;;;8.29;100.00
74163;BME280;62515;52.758;5.076;2024-03-23T01:46:41;101039.41;;;8.31;100.00
74163;BME280;62515;52.758;5.076;2024-03-23T01:49:08;101047.38;;;8.46;100.00
74163;BME280;62515;52.758;5.076;2024-03-23T01:51:34;101050.88;;;8.32;100.00
74163;BME280;62515;52.758;5.076;2024-03-23T01:54:01;101033.75;;;8.37;100.00
74163;BME280;62515;52.758;5.076;2024-03-23T01:56:29;101033.00;;;8.50;100.00
74163;BME280;62515;52.758;5.076;2024-03-23T01:58:55;101040.84;;;8.37;100.00
74163;BME280;62515;52.758;5.076;2024-03-23T02:01:20;101035.91;;;8.31;100.00
74163;BME280;62515;52.758;5.076;2024-03-23T02:03:46;101037.75;;;8.45;100.00
74163;BME280;62515;52.758;5.076;2024-03-23T02:06:12;101033.44;;;8.28;100.00
74163;BME280;62515;52.758;5.076;2024-03-23T02:08:39;101024.59;;;7.98;100.00
74163;BME280;62515;52.758;5.076;2024-03-23T02:11:05;101023.91;;;8.24;100.00
74163;BME280;62515;52.758;5.076;2024-03-23T02:13:32;101027.78;;;7.88;100.00
74163;BME280;62515;52.758;5.076;2024-03-23T02:15:58;101015.06;;;7.79;100.00
74163;BME280;62515;52.758;5.076;2024-03-23T02:18:24;101010.25;;;7.86;100.00
74163;BME280;62515;52.758;5.076;2024-03-23T02:20:50;101008.13;;;7.93;100.00
74163;BME280;62515;52.758;5.076;2024-03-23T02:23:17;101006.66;;;8.17;100.00
74163;BME280;62515;52.758;5.076;2024-03-23T02:25:43;101005.03;;;7.84;100.00
74163;BME280;62515;52.758;5.076;2024-03-23T02:28:09;101003.38;;;7.98;100.00
74163;BME280;62515;52.758;5.076;2024-03-23T02:30:35;100992.53;;;8.02;100.00
74163;BME280;62515;52.758;5.076;2024-03-23T02:33:01;100997.22;;;7.97;100.00
74163;BME280;62515;52.758;5.076;2024-03-23T02:35:27;100990.75;;;8.03;100.00
74163;BME280;62515;52.758;5.076;2024-03-23T02:37:53;100988.03;;;8.18;100.00
74163;BME280;62515;52.758;5.076;2024-03-23T02:40:20;100990.31;;;8.24;100.00
74163;BME280;62515;52.758;5.076;2024-03-23T02:42:46;100992.66;;;8.15;100.00
74163;BME280;62515;52.758;5.076;2024-03-23T02:45:11;100973.84;;;7.89;100.00
74163;BME280;62515;52.758;5.076;2024-03-23T02:47:37;100983.47;;;8.06;100.00
74163;BME280;62515;52.758;5.076;2024-03-23T02:50:04;100983.47;;;8.06;100.00
74163;BME280;62515;52.758;5.076;2024-03-23T02:52:30;100982.63;;;7.90;100.00
74163;BME280;62515;52.758;5.076;2024-03-23T02:54:56;100984.19;;;7.78;100.00
74163;BME280;62515;52.758;5.076;2024-03-23T02:57:23;100974.59;;;7.92;100.00
74163;BME280;62515;52.758;5.076;2024-03-23T02:59:49;100972.19;;;8.03;100.00
74163;BME280;62515;52.758;5.076;2024-03-23T03:02:15;100965.75;;;8.07;100.00
74163;BME280;62515;52.758;5.076;2024-03-23T03:04:41;100966.28;;;7.98;100.00
74163;BME280;62515;52.758;5.076;2024-03-23T03:07:07;100966.16;;;8.15;100.00
74163;BME280;62515;52.758;5.076;2024-03-23T03:09:33;100955.44;;;8.16;100.00
74163;BME280;62515;52.758;5.076;2024-03-23T03:11:59;100952.66;;;8.04;100.00
74163;BME280;62515;52.758;5.076;2024-03-23T03:14:26;100952.03;;;8.14;100.00
74163;BME280;62515;52.758;5.076;2024-03-23T03:16:52;100952.47;;;7.93;100.00
74163;BME280;62515;52.758;5.076;2024-03-23T03:19:17;100953.81;;;8.00;100.00
74163;BME280;62515;52.758;5.076;2024-03-23T03:21:43;100954.75;;;7.99;100.00
74163;BME280;62515;52.758;5.076;2024-03-23T03:24:09;100953.03;;;7.98;100.00
74163;BME280;62515;52.758;5.076;2024-03-23T03:26:35;100949.50;;;7.67;100.00
74163;BME280;62515;52.758;5.076;2024-03-23T03:29:01;100947.34;;;7.60;100.00
74163;BME280;62515;52.758;5.076;2024-03-23T03:31:28;100955.66;;;7.83;100.00
74163;BME280;62515;52.758;5.076;2024-03-23T03:33:54;100945.44;;;7.62;100.00
74163;BME280;62515;52.758;5.076;2024-03-23T03:36:20;100936.13;;;7.70;100.00
74163;BME280;62515;52.758;5.076;2024-03-23T03:38:46;100932.31;;;7.74;100.00
74163;BME280;62515;52.758;5.076;2024-03-23T03:41:12;100928.69;;;7.61;100.00
74163;BME280;62515;52.758;5.076;2024-03-23T03:43:38;100920.34;;;7.53;100.00
74163;BME280;62515;52.758;5.076;2024-03-23T03:46:04;100917.53;;;7.86;100.00
74163;BME280;62515;52.758;5.076;2024-03-23T03:48:31;100926.19;;;8.18;100.00
74163;BME280;62515;52.758;5.076;2024-03-23T03:50:57;100922.41;;;8.08;100.00
74163;BME280;62515;52.758;5.076;2024-03-23T03:53:22;100912.16;;;8.02;100.00
74163;BME280;62515;52.758;5.076;2024-03-23T03:55:48;100899.84;;;8.01;100.00
74163;BME280;62515;52.758;5.076;2024-03-23T03:58:14;100913.41;;;8.10;100.00
74163;BME280;62515;52.758;5.076;2024-03-23T04:00:40;100911.41;;;8.14;100.00
74163;BME280;62515;52.758;5.076;2024-03-23T04:03:06;100911.91;;;7.76;100.00
74163;BME280;62515;52.758;5.076;2024-03-23T04:05:33;100906.13;;;8.14;100.00
74163;BME280;62515;52.758;5.076;2024-03-23T04:07:59;100915.16;;;8.25;100.00
74163;BME280;62515;52.758;5.076;2024-03-23T04:10:24;100915.66;;;8.32;100.00
74163;BME280;62515;52.758;5.076;2024-03-23T04:12:50;100917.09;;;8.52;100.00
74163;BME280;62515;52.758;5.076;2024-03-23T04:15:16;100904.66;;;8.38;100.00
74163;BME280;62515;52.758;5.076;2024-03-23T04:17:42;100903.19;;;8.18;100.00
74163;BME280;62515;52.758;5.076;2024-03-23T04:20:09;100908.34;;;8.50;100.00
74163;BME280;62515;52.758;5.076;2024-03-23T04:22:36;100907.13;;;8.41;100.00
74163;BME280;62515;52.758;5.076;2024-03-23T04:25:03;100909.50;;;8.31;100.00
74163;BME280;62515;52.758;5.076;2024-03-23T04:27:29;100913.41;;;8.10;100.00
74163;BME280;62515;52.758;5.076;2024-03-23T04:29:55;100910.34;;;7.88;100.00
74163;BME280;62515;52.758;5.076;2024-03-23T04:32:21;100908.09;;;7.96;100.00
74163;BME280;62515;52.758;5.076;2024-03-23T04:34:48;100902.50;;;8.01;100.00
74163;BME280;62515;52.758;5.076;2024-03-23T04:37:13;100907.38;;;7.78;100.00
74163;BME280;62515;52.758;5.076;2024-03-23T04:39:41;100906.25;;;7.82;100.00
74163;BME280;62515;52.758;5.076;2024-03-23T04:42:07;100912.84;;;7.75;100.00
74163;BME280;62515;52.758;5.076;2024-03-23T04:44:33;100911.81;;;7.78;100.00
74163;BME280;62515;52.758;5.076;2024-03-23T04:47:00;100897.84;;;7.90;100.00
74163;BME280;62515;52.758;5.076;2024-03-23T04:49:26;100900.81;;;8.00;100.00
74163;BME280;62515;52.758;5.076;2024-03-23T04:51:52;100907.91;;;8.13;100.00
74163;BME280;62515;52.758;5.076;2024-03-23T04:54:18;100901.88;;;8.25;100.00
74163;BME280;62515;52.758;5.076;2024-03-23T04:56:45;100896.66;;;8.24;100.00
74163;BME280;62515;52.758;5.076;2024-03-23T04:59:11;100897.38;;;8.42;100.00
74163;BME280;62515;52.758;5.076;2024-03-23T05:01:37;100895.41;;;8.45;100.00
74163;BME280;62515;52.758;5.076;2024-03-23T05:04:03;100893.59;;;8.31;100.00
74163;BME280;62515;52.758;5.076;2024-03-23T05:06:29;100886.00;;;8.39;100.00
74163;BME280;62515;52.758;5.076;2024-03-23T05:08:55;100893.22;;;8.37;100.00
74163;BME280;62515;52.758;5.076;2024-03-23T05:11:20;100883.66;;;8.35;100.00
74163;BME280;62515;52.758;5.076;2024-03-23T05:13:48;100880.03;;;8.50;100.00
74163;BME280;62515;52.758;5.076;2024-03-23T05:16:13;100880.00;;;8.22;100.00
74163;BME280;62515;52.758;5.076;2024-03-23T05:18:39;100876.44;;;8.37;100.00
74163;BME280;62515;52.758;5.076;2024-03-23T05:21:05;100876.25;;;8.40;100.00
74163;BME280;62515;52.758;5.076;2024-03-23T05:23:31;100867.91;;;8.46;100.00
74163;BME280;62515;52.758;5.076;2024-03-23T05:25:57;100881.94;;;8.48;100.00
74163;BME280;62515;52.758;5.076;2024-03-23T05:28:22;100877.94;;;8.55;100.00
74163;BME280;62515;52.758;5.076;2024-03-23T05:30:52;100874.63;;;8.66;100.00
74163;BME280;62515;52.758;5.076;2024-03-23T05:33:18;100870.16;;;8.24;100.00
74163;BME280;62515;52.758;5.076;2024-03-23T05:35:44;100876.53;;;8.50;100.00
74163;BME280;62515;52.758;5.076;2024-03-23T05:38:09;100879.56;;;8.44;100.00
74163;BME280;62515;52.758;5.076;2024-03-23T05:40:35;100880.00;;;8.78;100.00
74163;BME280;62515;52.758;5.076;2024-03-23T05:43:01;100880.38;;;8.72;100.00
74163;BME280;62515;52.758;5.076;2024-03-23T05:45:27;100891.19;;;8.27;100.00
74163;BME280;62515;52.758;5.076;2024-03-23T05:47:54;100891.25;;;7.67;100.00
74163;BME280;62515;52.758;5.076;2024-03-23T05:50:20;100842.31;;;7.29;100.00
74163;BME280;62515;52.758;5.076;2024-03-23T05:52:45;100826.66;;;7.10;100.00
74163;BME280;62515;52.758;5.076;2024-03-23T05:55:11;100836.78;;;7.33;100.00
74163;BME280;62515;52.758;5.076;2024-03-23T05:57:37;100849.28;;;7.46;100.00
74163;BME280;62515;52.758;5.076;2024-03-23T06:00:04;100854.16;;;7.67;100.00
74163;BME280;62515;52.758;5.076;2024-03-23T06:02:37;100855.69;;;7.71;100.00
74163;BME280;62515;52.758;5.076;2024-03-23T06:05:05;100858.22;;;8.03;100.00
74163;BME280;62515;52.758;5.076;2024-03-23T06:07:30;100853.94;;;7.86;100.00
74163;BME280;62515;52.758;5.076;2024-03-23T06:09:56;100851.09;;;7.89;100.00
74163;BME280;62515;52.758;5.076;2024-03-23T06:12:22;100848.53;;;7.87;100.00
74163;BME280;62515;52.758;5.076;2024-03-23T06:14:48;100852.34;;;7.98;100.00
74163;BME280;62515;52.758;5.076;2024-03-23T06:17:14;100848.41;;;8.47;100.00
74163;BME280;62515;52.758;5.076;2024-03-23T06:19:39;100848.41;;;8.33;100.00
74163;BME280;62515;52.758;5.076;2024-03-23T06:22:07;100861.47;;;8.50;100.00
74163;BME280;62515;52.758;5.076;2024-03-23T06:24:32;100850.00;;;8.21;100.00
74163;BME280;62515;52.758;5.076;2024-03-23T06:26:58;100860.47;;;7.95;100.00
74163;BME280;62515;52.758;5.076;2024-03-23T06:29:24;100860.91;;;8.45;100.00
74163;BME280;62515;52.758;5.076;2024-03-23T06:31:53;100856.28;;;8.89;100.00
74163;BME280;62515;52.758;5.076;2024-03-23T06:34:19;100863.72;;;8.70;100.00
74163;BME280;62515;52.758;5.076;2024-03-23T06:36:46;100864.44;;;8.86;100.00
74163;BME280;62515;52.758;5.076;2024-03-23T06:39:13;100857.75;;;9.08;100.00
74163;BME280;62515;52.758;5.076;2024-03-23T06:41:39;100862.03;;;9.10;100.00
74163;BME280;62515;52.758;5.076;2024-03-23T06:44:05;100856.34;;;9.29;100.00
74163;BME280;62515;52.758;5.076;2024-03-23T06:46:31;100859.06;;;9.54;100.00
74163;BME280;62515;52.758;5.076;2024-03-23T06:48:57;100857.25;;;9.42;100.00
74163;BME280;62515;52.758;5.076;2024-03-23T06:51:22;100856.72;;;9.50;100.00
74163;BME280;62515;52.758;5.076;2024-03-23T06:53:49;100850.97;;;10.08;100.00
74163;BME280;62515;52.758;5.076;2024-03-23T06:56:16;100865.31;;;9.92;100.00
74163;BME280;62515;52.758;5.076;2024-03-23T06:58:42;100855.72;;;9.77;100.00
74163;BME280;62515;52.758;5.076;2024-03-23T07:01:08;100845.84;;;9.40;100.00
74163;BME280;62515;52.758;5.076;2024-03-23T07:03:34;100858.03;;;9.30;100.00
74163;BME280;62515;52.758;5.076;2024-03-23T07:06:00;100848.84;;;9.35;100.00
74163;BME280;62515;52.758;5.076;2024-03-23T07:08:26;100860.81;;;9.28;100.00
74163;BME280;62515;52.758;5.076;2024-03-23T07:10:51;100860.16;;;8.98;100.00
74163;BME280;62515;52.758;5.076;2024-03-23T07:13:19;100859.94;;;9.28;100.00
74163;BME280;62515;52.758;5.076;2024-03-23T07:15:51;100859.75;;;9.70;100.00
74163;BME280;62515;52.758;5.076;2024-03-23T07:18:17;100865.75;;;9.47;100.00
74163;BME280;62515;52.758;5.076;2024-03-23T07:20:52;100852.66;;;10.09;100.00
74163;BME280;62515;52.758;5.076;2024-03-23T07:23:18;100842.66;;;9.99;100.00
74163;BME280;62515;52.758;5.076;2024-03-23T07:25:43;100858.41;;;10.28;100.00
74163;BME280;62515;52.758;5.076;2024-03-23T07:28:09;100859.47;;;10.13;100.00
74163;BME280;62515;52.758;5.076;2024-03-23T07:30:36;100853.59;;;9.82;100.00
74163;BME280;62515;52.758;5.076;2024-03-23T07:33:02;100845.16;;;9.63;100.00
74163;BME280;62515;52.758;5.076;2024-03-23T07:35:28;100837.63;;;9.70;100.00
74163;BME280;62515;52.758;5.076;2024-03-23T07:37:54;100844.91;;;9.41;100.00
74163;BME280;62515;52.758;5.076;2024-03-23T07:40:20;100850.34;;;9.13;100.00
74163;BME280;62515;52.758;5.076;2024-03-23T07:42:46;100856.88;;;9.07;100.00
74163;BME280;62515;52.758;5.076;2024-03-23T07:45:12;100851.78;;;9.04;100.00
74163;BME280;62515;52.758;5.076;2024-03-23T07:47:39;100846.53;;;9.56;100.00
74163;BME280;62515;52.758;5.076;2024-03-23T07:50:06;100846.53;;;10.21;100.00
74163;BME280;62515;52.758;5.076;2024-03-23T07:52:32;100838.56;;;10.70;100.00
74163;BME280;62515;52.758;5.076;2024-03-23T07:54:57;100836.44;;;10.75;100.00
74163;BME280;62515;52.758;5.076;2024-03-23T07:57:23;100839.31;;;10.72;100.00
74163;BME280;62515;52.758;5.076;2024-03-23T07:59:49;100852.56;;;10.48;100.00
74163;BME280;62515;52.758;5.076;2024-03-23T08:02:15;100849.25;;;9.94;100.00
74163;BME280;62515;52.758;5.076;2024-03-23T08:04:42;100853.38;;;9.33;100.00
74163;BME280;62515;52.758;5.076;2024-03-23T08:07:08;100846.16;;;9.23;100.00
74163;BME280;62515;52.758;5.076;2024-03-23T08:09:34;100836.78;;;9.30;100.00
74163;BME280;62515;52.758;5.076;2024-03-23T08:12:00;100836.72;;;9.44;100.00
74163;BME280;62515;52.758;5.076;2024-03-23T08:14:26;100831.00;;;10.27;100.00
74163;BME280;62515;52.758;5.076;2024-03-23T08:16:51;100827.56;;;10.25;100.00
74163;BME280;62515;52.758;5.076;2024-03-23T08:19:17;100836.91;;;10.56;100.00
74163;BME280;62515;52.758;5.076;2024-03-23T08:21:44;100832.03;;;10.25;100.00
74163;BME280;62515;52.758;5.076;2024-03-23T08:24:10;100845.16;;;9.63;100.00
74163;BME280;62515;52.758;5.076;2024-03-23T08:26:36;100856.63;;;8.98;100.00
74163;BME280;62515;52.758;5.076;2024-03-23T08:29:02;100857.97;;;8.64;100.00
74163;BME280;62515;52.758;5.076;2024-03-23T08:31:27;100861.75;;;8.60;100.00
74163;BME280;62515;52.758;5.076;2024-03-23T08:33:53;100863.16;;;8.65;100.00
74163;BME280;62515;52.758;5.076;2024-03-23T08:36:19;100864.00;;;8.80;100.00
74163;BME280;62515;52.758;5.076;2024-03-23T08:38:46;100855.03;;;8.95;100.00
74163;BME280;62515;52.758;5.076;2024-03-23T08:41:12;100866.38;;;8.70;100.00
74163;BME280;62515;52.758;5.076;2024-03-23T08:43:39;100850.97;;;9.04;100.00
74163;BME280;62515;52.758;5.076;2024-03-23T08:46:06;100853.03;;;9.52;100.00
74163;BME280;62515;52.758;5.076;2024-03-23T08:48:32;100843.06;;;9.56;100.00
74163;BME280;62515;52.758;5.076;2024-03-23T08:51:00;100839.06;;;10.13;100.00
74163;BME280;62515;52.758;5.076;2024-03-23T08:53:27;100843.47;;;10.76;100.00
74163;BME280;62515;52.758;5.076;2024-03-23T08:55:55;100817.69;;;11.00;100.00
74163;BME280;62515;52.758;5.076;2024-03-23T08:58:21;100832.81;;;10.63;100.00
74163;BME280;62515;52.758;5.076;2024-03-23T09:00:46;100837.47;;;11.32;100.00
74163;BME280;62515;52.758;5.076;2024-03-23T09:03:12;100826.09;;;11.07;100.00
74163;BME280;62515;52.758;5.076;2024-03-23T09:05:39;100818.47;;;11.37;100.00
74163;BME280;62515;52.758;5.076;2024-03-23T09:08:05;100831.81;;;11.13;100.00
74163;BME280;62515;52.758;5.076;2024-03-23T09:10:31;100825.16;;;10.71;100.00
74163;BME280;62515;52.758;5.076;2024-03-23T09:12:58;100823.94;;;11.12;100.00
74163;BME280;62515;52.758;5.076;2024-03-23T09:15:24;100822.56;;;11.30;100.00
74163;BME280;62515;52.758;5.076;2024-03-23T09:17:50;100818.31;;;11.62;100.00
74163;BME280;62515;52.758;5.076;2024-03-23T09:20:16;100823.50;;;12.65;100.00
74163;BME280;62515;52.758;5.076;2024-03-23T09:22:42;100811.63;;;12.69;100.00
74163;BME280;62515;52.758;5.076;2024-03-23T09:25:08;100820.75;;;12.11;100.00
74163;BME280;62515;52.758;5.076;2024-03-23T09:27:33;100823.75;;;12.06;100.00
74163;BME280;62515;52.758;5.076;2024-03-23T09:30:01;100811.97;;;11.52;100.00
74163;BME280;62515;52.758;5.076;2024-03-23T09:32:26;100818.69;;;11.69;100.00
74163;BME280;62515;52.758;5.076;2024-03-23T09:34:52;100818.28;;;11.97;100.00
74163;BME280;62515;52.758;5.076;2024-03-23T09:37:18;100822.91;;;12.84;100.00
74163;BME280;62515;52.758;5.076;2024-03-23T09:39:44;100820.28;;;12.28;100.00
74163;BME280;62515;52.758;5.076;2024-03-23T09:42:10;100811.66;;;11.68;100.00
74163;BME280;62515;52.758;5.076;2024-03-23T09:44:35;100815.31;;;12.35;100.00
74163;BME280;62515;52.758;5.076;2024-03-23T09:47:03;100814.31;;;11.57;100.00
74163;BME280;62515;52.758;5.076;2024-03-23T09:49:29;100808.50;;;10.80;100.00
74163;BME280;62515;52.758;5.076;2024-03-23T09:51:55;100821.91;;;10.91;100.00
74163;BME280;62515;52.758;5.076;2024-03-23T09:54:21;100818.06;;;12.11;100.00
74163;BME280;62515;52.758;5.076;2024-03-23T09:56:47;100809.91;;;12.90;100.00
74163;BME280;62515;52.758;5.076;2024-03-23T09:59:13;100810.34;;;12.95;100.00
74163;BME280;62515;52.758;5.076;2024-03-23T10:01:39;100816.56;;;13.80;100.00
74163;BME280;62515;52.758;5.076;2024-03-23T10:04:06;100818.06;;;12.78;100.00
74163;BME280;62515;52.758;5.076;2024-03-23T10:06:32;100814.78;;;11.85;100.00
74163;BME280;62515;52.758;5.076;2024-03-23T10:08:58;100813.31;;;10.99;100.00
74163;BME280;62515;52.758;5.076;2024-03-23T10:11:23;100820.44;;;11.46;100.00
74163;BME280;62515;52.758;5.076;2024-03-23T10:13:49;100818.06;;;12.00;100.00
74163;BME280;62515;52.758;5.076;2024-03-23T10:16:22;100807.50;;;11.76;100.00
74163;BME280;62515;52.758;5.076;2024-03-23T10:18:48;100814.63;;;11.41;100.00
74163;BME280;62515;52.758;5.076;2024-03-23T10:21:15;100815.44;;;11.07;100.00
74163;BME280;62515;52.758;5.076;2024-03-23T10:23:42;100822.97;;;10.89;100.00
74163;BME280;62515;52.758;5.076;2024-03-23T10:26:17;100803.88;;;11.88;100.00
74163;BME280;62515;52.758;5.076;2024-03-23T10:28:51;100803.00;;;12.66;100.00
74163;BME280;62515;52.758;5.076;2024-03-23T10:31:18;100796.25;;;13.98;100.00
74163;BME280;62515;52.758;5.076;2024-03-23T10:33:44;100814.03;;;12.83;100.00
74163;BME280;62515;52.758;5.076;2024-03-23T10:36:11;100811.41;;;12.28;100.00
74163;BME280;62515;52.758;5.076;2024-03-23T10:38:40;100814.22;;;12.48;100.00
74163;BME280;62515;52.758;5.076;2024-03-23T10:41:07;100807.44;;;12.98;100.00
74163;BME280;62515;52.758;5.076;2024-03-23T10:43:34;100807.19;;;13.01;100.00
74163;BME280;62515;52.758;5.076;2024-03-23T10:46:00;100788.47;;;13.65;100.00
74163;BME280;62515;52.758;5.076;2024-03-23T10:48:26;100807.44;;;14.03;100.00
74163;BME280;62515;52.758;5.076;2024-03-23T10:50:52;100797.59;;;12.12;100.00
74163;BME280;62515;52.758;5.076;2024-03-23T10:53:19;100815.03;;;11.59;100.00
74163;BME280;62515;52.758;5.076;2024-03-23T10:55:48;100819.03;;;11.06;100.00
74163;BME280;62515;52.758;5.076;2024-03-23T10:58:14;100811.28;;;10.79;100.00
74163;BME280;62515;52.758;5.076;2024-03-23T11:00:41;100810.88;;;10.96;100.00
74163;BME280;62515;52.758;5.076;2024-03-23T11:03:29;100813.63;;;11.42;100.00
74163;BME280;62515;52.758;5.076;2024-03-23T11:05:55;100820.72;;;10.59;100.00
74163;BME280;62515;52.758;5.076;2024-03-23T11:08:30;100829.25;;;10.52;100.00
74163;BME280;62515;52.758;5.076;2024-03-23T11:13:51;100826.00;;;10.72;100.00
74163;BME280;62515;52.758;5.076;2024-03-23T11:16:21;100813.13;;;12.51;100.00
74163;BME280;62515;52.758;5.076;2024-03-23T11:18:48;100798.75;;;13.28;100.00
74163;BME280;62515;52.758;5.076;2024-03-23T11:21:51;100813.72;;;12.10;100.00
74163;BME280;62515;52.758;5.076;2024-03-23T11:24:17;100812.13;;;11.03;100.00
74163;BME280;62515;52.758;5.076;2024-03-23T11:26:43;100826.63;;;10.75;100.00
74163;BME280;62515;52.758;5.076;2024-03-23T11:29:10;100824.16;;;10.48;100.00
74163;BME280;62515;52.758;5.076;2024-03-23T11:31:36;100823.59;;;10.56;100.00
74163;BME280;62515;52.758;5.076;2024-03-23T11:34:03;100819.97;;;10.93;100.00
74163;BME280;62515;52.758;5.076;2024-03-23T11:36:29;100814.69;;;11.63;100.00
74163;BME280;62515;52.758;5.076;2024-03-23T11:38:55;100817.59;;;11.01;100.00
74163;BME280;62515;52.758;5.076;2024-03-23T11:41:21;100810.75;;;10.25;100.00
74163;BME280;62515;52.758;5.076;2024-03-23T11:43:47;100800.09;;;10.12;100.00
74163;BME280;62515;52.758;5.076;2024-03-23T11:46:22;100811.97;;;10.57;100.00
74163;BME280;62515;52.758;5.076;2024-03-23T11:48:49;100801.91;;;10.73;100.00
74163;BME280;62515;52.758;5.076;2024-03-23T11:51:15;100794.50;;;11.37;100.00
74163;BME280;62515;52.758;5.076;2024-03-23T11:53:42;100796.97;;;11.86;100.00
74163;BME280;62515;52.758;5.076;2024-03-23T11:56:08;100787.63;;;12.14;100.00
74163;BME280;62515;52.758;5.076;2024-03-23T11:58:34;100793.31;;;11.41;100.00
74163;BME280;62515;52.758;5.076;2024-03-23T12:01:01;100796.63;;;11.55;100.00
74163;BME280;62515;52.758;5.076;2024-03-23T12:03:29;100794.34;;;12.19;100.00
74163;BME280;62515;52.758;5.076;2024-03-23T12:05:57;100794.91;;;12.23;100.00
74163;BME280;62515;52.758;5.076;2024-03-23T12:08:24;100785.94;;;12.24;100.00
74163;BME280;62515;52.758;5.076;2024-03-23T12:10:51;100784.97;;;11.91;100.00
74163;BME280;62515;52.758;5.076;2024-03-23T12:13:18;100795.88;;;12.11;100.00
74163;BME280;62515;52.758;5.076;2024-03-23T12:15:45;100784.97;;;12.25;100.00
74163;BME280;62515;52.758;5.076;2024-03-23T12:18:12;100786.34;;;12.84;100.00
74163;BME280;62515;52.758;5.076;2024-03-23T12:20:39;100772.44;;;13.13;100.00
74163;BME280;62515;52.758;5.076;2024-03-23T12:23:09;100768.03;;;13.43;100.00
74163;BME280;62515;52.758;5.076;2024-03-23T12:25:38;100767.97;;;13.13;100.00
74163;BME280;62515;52.758;5.076;2024-03-23T12:28:04;100755.47;;;13.55;100.00
74163;BME280;62515;52.758;5.076;2024-03-23T12:30:30;100765.53;;;12.99;100.00
74163;BME280;62515;52.758;5.076;2024-03-23T12:32:56;100759.69;;;13.16;100.00
74163;BME280;62515;52.758;5.076;2024-03-23T12:35:22;100772.53;;;12.68;100.00
74163;BME280;62515;52.758;5.076;2024-03-23T12:37:49;100764.97;;;12.41;100.00
74163;BME280;62515;52.758;5.076;2024-03-23T12:40:15;100754.16;;;12.10;100.00
74163;BME280;62515;52.758;5.076;2024-03-23T12:42:41;100768.44;;;12.53;100.00
74163;BME280;62515;52.758;5.076;2024-03-23T12:45:07;100757.13;;;13.15;100.00
74163;BME280;62515;52.758;5.076;2024-03-23T12:47:33;100759.09;;;13.33;100.00
74163;BME280;62515;52.758;5.076;2024-03-23T12:49:59;100766.03;;;12.61;100.00
74163;BME280;62515;52.758;5.076;2024-03-23T12:52:25;100761.16;;;12.55;100.00
74163;BME280;62515;52.758;5.076;2024-03-23T12:54:52;100768.16;;;11.56;100.00
74163;BME280;62515;52.758;5.076;2024-03-23T12:57:18;100773.44;;;10.86;100.00
74163;BME280;62515;52.758;5.076;2024-03-23T12:59:44;100757.94;;;10.57;100.00
74163;BME280;62515;52.758;5.076;2024-03-23T13:02:10;100771.06;;;10.34;100.00
74163;BME280;62515;52.758;5.076;2024-03-23T13:04:35;100766.56;;;11.19;100.00
74163;BME280;62515;52.758;5.076;2024-03-23T13:07:01;100761.44;;;10.81;100.00
74163;BME280;62515;52.758;5.076;2024-03-23T13:09:27;100758.63;;;11.30;100.00
74163;BME280;62515;52.758;5.076;2024-03-23T13:11:54;100764.09;;;11.74;100.00
74163;BME280;62515;52.758;5.076;2024-03-23T13:14:20;100751.34;;;11.32;100.00
74163;BME280;62515;52.758;5.076;2024-03-23T13:16:46;100747.34;;;12.50;100.00
74163;BME280;62515;52.758;5.076;2024-03-23T13:19:12;100738.28;;;12.30;100.00
74163;BME280;62515;52.758;5.076;2024-03-23T13:21:37;100738.13;;;13.29;100.00
74163;BME280;62515;52.758;5.076;2024-03-23T13:24:04;100741.50;;;12.67;100.00
74163;BME280;62515;52.758;5.076;2024-03-23T13:26:30;100739.97;;;12.20;100.00
74163;BME280;62515;52.758;5.076;2024-03-23T13:28:57;100734.97;;;12.49;100.00
74163;BME280;62515;52.758;5.076;2024-03-23T13:31:23;100739.75;;;12.12;100.00
74163;BME280;62515;52.758;5.076;2024-03-23T13:33:49;100728.97;;;13.10;100.00
74163;BME280;62515;52.758;5.076;2024-03-23T13:36:14;100725.31;;;13.53;100.00
74163;BME280;62515;52.758;5.076;2024-03-23T13:38:40;100724.69;;;13.60;100.00